Time;durP1;ratioP1;P1;durP2;ratioP2;P2;SDS_P1;SDS_P2;PMS_P1;PMS_P2;Temp;Humidity;BMP_temperature;BMP_pressure;BME280_temperature;BME280_humidity;BME280_pressure;Samples;Min_cycle;Max_cycle;Signal;HPM_P1;HPM_P2
2021/05/03 00:00:00;;;;;;;1.50;1.40;;;;;;;;;;5116179;28;20181;-41
2021/05/03 00:02:26;;;;;;;1.42;1.33;;;;;;;;;;5115436;28;20460;-41
2021/05/03 00:04:52;;;;;;;1.50;1.30;;;;;;;;;;5116108;28;20223;-41
2021/05/03 00:07:18;;;;;;;1.55;1.23;;;;;;;;;;5116108;28;20173;-41
2021/05/03 00:09:44;;;;;;;1.90;1.70;;;;;;;;;;5116198;28;20588;-41
2021/05/03 00:12:10;;;;;;;1.90;1.40;;;;;;;;;;5115030;28;20208;-41
2021/05/03 00:14:36;;;;;;;2.63;1.23;;;;;;;;;;5116390;28;20180;-41
2021/05/03 00:17:03;;;;;;;1.10;1.00;;;;;;;;;;5115796;28;20173;-41
2021/05/03 00:19:28;;;;;;;1.75;1.58;;;;;;;;;;5116137;28;20184;-41
2021/05/03 00:21:54;;;;;;;1.58;1.35;;;;;;;;;;5095151;28;589282;-41
2021/05/03 00:24:20;;;;;;;1.58;1.42;;;;;;;;;;5116969;28;20185;-41
2021/05/03 00:26:46;;;;;;;1.23;1.13;;;;;;;;;;5117177;28;20638;-41
2021/05/03 00:29:12;;;;;;;1.17;1.08;;;;;;;;;;5116642;28;20203;-41
2021/05/03 00:31:38;;;;;;;1.23;1.10;;;;;;;;;;5116113;28;20568;-41
2021/05/03 00:34:05;;;;;;;1.50;1.40;;;;;;;;;;5116201;28;20173;-41
2021/05/03 00:36:31;;;;;;;1.20;1.10;;;;;;;;;;5116816;28;20184;-41
2021/05/03 00:38:57;;;;;;;1.00;0.93;;;;;;;;;;5116940;28;20235;-41
2021/05/03 00:41:23;;;;;;;1.30;1.00;;;;;;;;;;5116282;28;20200;-41
2021/05/03 00:43:50;;;;;;;1.20;1.10;;;;;;;;;;5116449;28;20216;-41
2021/05/03 00:46:19;;;;;;;1.30;1.08;;;;;;;;;;5116412;28;20181;-42
2021/05/03 00:48:45;;;;;;;1.33;1.20;;;;;;;;;;5116284;28;20578;-41
2021/05/03 00:51:11;;;;;;;1.10;1.00;;;;;;;;;;5103662;28;20205;-41
2021/05/03 00:53:37;;;;;;;1.70;1.55;;;;;;;;;;5116694;28;20181;-42
2021/05/03 00:56:04;;;;;;;1.25;1.13;;;;;;;;;;5115890;28;20186;-41
2021/05/03 00:58:30;;;;;;;1.40;1.27;;;;;;;;;;5116110;28;20479;-41
2021/05/03 01:00:56;;;;;;;1.35;1.15;;;;;;;;;;5115182;28;20216;-41
2021/05/03 01:03:22;;;;;;;1.50;1.40;;;;;;;;;;5115857;28;20192;-41
2021/05/03 01:05:48;;;;;;;1.20;1.10;;;;;;;;;;5116192;28;20187;-41
2021/05/03 01:08:14;;;;;;;1.20;1.10;;;;;;;;;;5115885;28;20188;-41
2021/05/03 01:10:40;;;;;;;1.23;1.13;;;;;;;;;;5115666;28;20201;-42
2021/05/03 01:13:06;;;;;;;1.25;1.15;;;;;;;;;;5115978;28;20189;-41
2021/05/03 01:15:32;;;;;;;1.25;1.15;;;;;;;;;;5115735;28;20453;-41
2021/05/03 01:18:00;;;;;;;1.42;1.10;;;;;;;;;;5115239;28;20192;-42
2021/05/03 01:20:27;;;;;;;1.20;1.10;;;;;;;;;;5115530;28;20184;-41
2021/05/03 01:22:56;;;;;;;1.35;1.10;;;;;;;;;;5114301;28;20169;-41
2021/05/03 01:25:22;;;;;;;1.83;1.00;;;;;;;;;;5115873;28;20161;-41
2021/05/03 01:27:48;;;;;;;1.30;1.20;;;;;;;;;;5115520;28;20215;-42
2021/05/03 01:30:14;;;;;;;1.33;1.20;;;;;;;;;;5115455;28;20588;-41
2021/05/03 01:32:40;;;;;;;1.25;1.10;;;;;;;;;;5114796;28;20179;-41
2021/05/03 01:35:07;;;;;;;0.95;0.95;;;;;;;;;;5115832;28;20536;-41
2021/05/03 01:37:33;;;;;;;0.93;0.93;;;;;;;;;;5115714;28;20161;-41
2021/05/03 01:39:59;;;;;;;1.40;1.13;;;;;;;;;;5115336;28;20173;-42
2021/05/03 01:42:26;;;;;;;1.30;1.13;;;;;;;;;;5114546;28;20442;-41
2021/05/03 01:44:59;;;;;;;0.90;0.90;;;;;;;;;;5115071;28;20233;-42
2021/05/03 01:47:26;;;;;;;1.20;1.10;;;;;;;;;;5115302;28;20209;-42
2021/05/03 01:49:52;;;;;;;1.25;1.10;;;;;;;;;;5115180;28;20187;-41
2021/05/03 01:52:18;;;;;;;2.03;1.23;;;;;;;;;;5114596;28;20173;-42
2021/05/03 01:54:44;;;;;;;1.40;0.93;;;;;;;;;;5115268;28;20188;-42
2021/05/03 01:57:10;;;;;;;1.00;1.00;;;;;;;;;;5114722;28;20252;-42
2021/05/03 01:59:36;;;;;;;1.15;1.05;;;;;;;;;;5115434;28;20275;-41
2021/05/03 02:02:02;;;;;;;1.10;0.90;;;;;;;;;;5114374;28;20318;-41
2021/05/03 02:04:28;;;;;;;1.10;1.00;;;;;;;;;;5114970;28;20514;-41
2021/05/03 02:06:54;;;;;;;1.08;0.93;;;;;;;;;;5115212;28;20169;-41
2021/05/03 02:09:20;;;;;;;1.48;1.00;;;;;;;;;;5115194;28;20205;-42
2021/05/03 02:11:46;;;;;;;0.90;0.90;;;;;;;;;;5114106;28;20200;-41
2021/05/03 02:14:12;;;;;;;1.13;1.00;;;;;;;;;;5114734;28;20177;-41
2021/05/03 02:16:38;;;;;;;1.10;1.00;;;;;;;;;;5114945;28;20547;-41
2021/05/03 02:19:04;;;;;;;1.00;0.90;;;;;;;;;;5114823;28;20252;-42
2021/05/03 02:21:30;;;;;;;1.30;0.90;;;;;;;;;;5114445;28;20479;-42
2021/05/03 02:23:56;;;;;;;1.45;1.10;;;;;;;;;;5114046;28;20176;-42
2021/05/03 02:26:22;;;;;;;1.20;1.10;;;;;;;;;;5114168;28;20173;-42
2021/05/03 02:28:50;;;;;;;0.93;0.93;;;;;;;;;;5114585;28;20189;-42
2021/05/03 02:31:17;;;;;;;1.10;1.00;;;;;;;;;;5114583;28;20567;-41
2021/05/03 02:33:43;;;;;;;1.00;1.00;;;;;;;;;;5113834;28;20192;-41
2021/05/03 02:36:09;;;;;;;1.20;1.10;;;;;;;;;;5115134;28;20169;-41
2021/05/03 02:38:35;;;;;;;1.10;1.00;;;;;;;;;;5103739;28;20180;-43
2021/05/03 02:41:01;;;;;;;1.20;1.10;;;;;;;;;;5093813;28;20227;-41
2021/05/03 02:43:27;;;;;;;0.98;0.98;;;;;;;;;;5112337;28;20200;-42
2021/05/03 02:45:53;;;;;;;0.80;0.80;;;;;;;;;;5114982;28;20169;-41
2021/05/03 02:48:19;;;;;;;1.10;1.00;;;;;;;;;;5114337;28;20314;-41
2021/05/03 02:50:45;;;;;;;0.90;0.90;;;;;;;;;;5101245;28;20284;-42
2021/05/03 02:53:11;;;;;;;0.90;0.90;;;;;;;;;;5102337;28;20256;-41
2021/05/03 02:55:37;;;;;;;1.27;1.10;;;;;;;;;;5114182;28;20177;-41
2021/05/03 02:58:03;;;;;;;0.88;0.88;;;;;;;;;;5114508;28;20436;-41
2021/05/03 03:00:29;;;;;;;0.90;0.90;;;;;;;;;;5113940;28;20187;-41
2021/05/03 03:02:56;;;;;;;0.98;0.98;;;;;;;;;;5114190;28;20174;-41
2021/05/03 03:05:22;;;;;;;0.90;0.90;;;;;;;;;;5114741;28;20165;-41
2021/05/03 03:07:49;;;;;;;0.98;0.90;;;;;;;;;;5114776;28;20175;-41
2021/05/03 03:10:15;;;;;;;0.80;0.80;;;;;;;;;;5114148;28;20204;-41
2021/05/03 03:12:41;;;;;;;1.20;1.02;;;;;;;;;;5113450;28;20178;-42
2021/05/03 03:15:11;;;;;;;0.90;0.90;;;;;;;;;;5116543;28;20243;-41
2021/05/03 03:17:38;;;;;;;1.27;1.17;;;;;;;;;;5117891;28;20165;-41
2021/05/03 03:20:05;;;;;;;0.85;0.80;;;;;;;;;;5118326;28;20223;-41
2021/05/03 03:22:31;;;;;;;0.80;0.80;;;;;;;;;;5117086;28;20180;-41
2021/05/03 03:24:57;;;;;;;0.82;0.82;;;;;;;;;;5118010;28;20181;-41
2021/05/03 03:27:23;;;;;;;0.98;0.90;;;;;;;;;;5100247;28;20181;-41
2021/05/03 03:29:49;;;;;;;1.00;0.90;;;;;;;;;;5117934;28;20177;-41
2021/05/03 03:32:15;;;;;;;1.10;1.00;;;;;;;;;;5117004;28;20270;-42
2021/05/03 03:34:40;;;;;;;1.02;1.00;;;;;;;;;;5117734;28;20189;-41
2021/05/03 03:37:06;;;;;;;0.80;0.80;;;;;;;;;;5117871;28;20161;-42
2021/05/03 03:39:32;;;;;;;0.75;0.70;;;;;;;;;;5109887;28;20299;-41
2021/05/03 03:41:58;;;;;;;0.80;0.80;;;;;;;;;;5117139;28;20769;-41
2021/05/03 03:44:24;;;;;;;0.88;0.88;;;;;;;;;;5117662;28;20205;-41
2021/05/03 03:46:50;;;;;;;0.85;0.85;;;;;;;;;;5117342;28;20173;-41
2021/05/03 03:49:17;;;;;;;0.90;0.90;;;;;;;;;;5117194;28;20257;-41
2021/05/03 03:51:43;;;;;;;0.82;0.82;;;;;;;;;;5116722;28;20201;-42
2021/05/03 03:54:09;;;;;;;0.80;0.80;;;;;;;;;;5117389;28;20190;-41
2021/05/03 03:56:35;;;;;;;0.90;0.90;;;;;;;;;;5117690;28;20169;-42
2021/05/03 03:59:01;;;;;;;1.15;1.00;;;;;;;;;;5117603;28;20200;-42
2021/05/03 04:01:31;;;;;;;0.93;0.90;;;;;;;;;;5116688;28;20228;-42
2021/05/03 04:04:02;;;;;;;1.30;1.20;;;;;;;;;;5116561;28;20173;-41
2021/05/03 04:06:51;;;;;;;1.55;1.05;;;;;;;;;;5116575;28;20181;-41
2021/05/03 04:09:27;;;;;;;2.78;1.55;;;;;;;;;;5110893;28;20177;-41
2021/05/03 04:23:12;;;;;;;50.50;12.38;;;;;;;;;;5116391;28;20474;-42
2021/05/03 04:25:40;;;;;;;45.45;10.27;;;;;;;;;;5115824;28;20177;-41
2021/05/03 04:28:07;;;;;;;132.60;27.30;;;;;;;;;;5116858;28;20234;-41
2021/05/03 04:30:34;;;;;;;118.57;26.38;;;;;;;;;;5116303;28;20246;-41
2021/05/03 04:33:00;;;;;;;126.10;27.85;;;;;;;;;;5116357;28;20173;-41
2021/05/03 04:35:26;;;;;;;101.10;24.95;;;;;;;;;;5115297;28;20226;-42
2021/05/03 04:37:52;;;;;;;85.72;22.13;;;;;;;;;;5115516;28;20188;-41
2021/05/03 04:40:19;;;;;;;79.32;19.40;;;;;;;;;;5116290;28;20193;-42
2021/05/03 04:42:45;;;;;;;77.40;19.75;;;;;;;;;;5115005;28;20188;-41
2021/05/03 04:45:12;;;;;;;67.45;17.90;;;;;;;;;;5116251;28;20192;-41
2021/05/03 04:47:39;;;;;;;75.47;18.13;;;;;;;;;;5116703;28;20214;-41
2021/05/03 04:50:05;;;;;;;72.97;17.92;;;;;;;;;;5115628;28;20617;-41
2021/05/03 04:52:32;;;;;;;66.00;17.65;;;;;;;;;;5115805;28;20166;-41
2021/05/03 04:54:57;;;;;;;61.58;16.15;;;;;;;;;;5116102;28;20560;-41
2021/05/03 04:57:23;;;;;;;59.22;17.38;;;;;;;;;;5116204;28;20169;-41
2021/05/03 04:59:49;;;;;;;59.28;16.63;;;;;;;;;;5116234;28;20563;-41
2021/05/03 05:02:16;;;;;;;59.92;16.77;;;;;;;;;;5112696;28;20173;-41
2021/05/03 05:04:42;;;;;;;52.38;16.13;;;;;;;;;;5114939;28;20184;-41
2021/05/03 05:07:08;;;;;;;48.47;14.45;;;;;;;;;;5115343;28;20169;-41
2021/05/03 05:09:34;;;;;;;50.47;15.02;;;;;;;;;;5115185;28;20199;-41
2021/05/03 05:12:01;;;;;;;51.35;14.18;;;;;;;;;;5115296;28;20196;-41
2021/05/03 05:14:27;;;;;;;47.53;14.90;;;;;;;;;;5115935;28;20598;-41
2021/05/03 05:16:53;;;;;;;45.88;14.32;;;;;;;;;;5115871;28;20244;-41
2021/05/03 05:19:19;;;;;;;49.85;13.85;;;;;;;;;;5115654;28;20277;-41
2021/05/03 05:21:45;;;;;;;38.53;13.07;;;;;;;;;;5115284;28;20188;-41
2021/05/03 05:24:11;;;;;;;54.20;13.75;;;;;;;;;;5115682;28;20173;-41
2021/05/03 05:26:38;;;;;;;45.80;12.75;;;;;;;;;;5115503;28;20173;-41
2021/05/03 05:29:04;;;;;;;43.83;13.40;;;;;;;;;;5115428;28;20314;-41
2021/05/03 05:31:31;;;;;;;41.65;12.57;;;;;;;;;;5115491;28;20200;-41
2021/05/03 05:33:57;;;;;;;40.72;11.55;;;;;;;;;;5114947;28;20248;-41
2021/05/03 05:36:23;;;;;;;38.80;11.68;;;;;;;;;;5115485;28;20167;-41
2021/05/03 05:38:49;;;;;;;34.50;11.10;;;;;;;;;;5114924;28;20241;-41
2021/05/03 05:41:17;;;;;;;36.60;11.52;;;;;;;;;;5115021;28;20169;-41
2021/05/03 05:43:43;;;;;;;34.70;11.07;;;;;;;;;;5114861;28;20173;-41
2021/05/03 05:46:09;;;;;;;32.75;11.65;;;;;;;;;;5101908;28;20496;-41
2021/05/03 05:48:36;;;;;;;29.38;10.30;;;;;;;;;;5107430;28;20227;-41
2021/05/03 05:51:02;;;;;;;33.78;10.48;;;;;;;;;;5102217;28;20202;-41
2021/05/03 05:53:30;;;;;;;26.85;9.65;;;;;;;;;;5104993;28;20169;-41
2021/05/03 05:55:56;;;;;;;30.13;10.07;;;;;;;;;;5099276;28;20162;-41
2021/05/03 05:58:22;;;;;;;23.58;10.45;;;;;;;;;;5094757;28;20455;-41
2021/05/03 06:00:48;;;;;;;26.77;9.98;;;;;;;;;;5114718;28;20321;-41
2021/05/03 06:03:14;;;;;;;26.25;9.23;;;;;;;;;;5114792;28;20227;-41
2021/05/03 06:05:40;;;;;;;21.63;9.15;;;;;;;;;;5115254;28;20197;-41
2021/05/03 06:08:06;;;;;;;22.17;8.65;;;;;;;;;;5114476;28;20239;-41
2021/05/03 06:10:32;;;;;;;21.80;9.15;;;;;;;;;;5113946;28;20211;-41
2021/05/03 06:12:57;;;;;;;22.05;7.95;;;;;;;;;;5114590;28;20251;-41
2021/05/03 06:15:23;;;;;;;27.60;9.95;;;;;;;;;;5114786;28;20298;-41
2021/05/03 06:17:49;;;;;;;22.27;8.90;;;;;;;;;;5114410;28;20184;-41
2021/05/03 06:20:15;;;;;;;19.67;7.78;;;;;;;;;;5115053;28;20181;-41
2021/05/03 06:22:41;;;;;;;18.83;7.68;;;;;;;;;;5113865;28;20191;-41
2021/05/03 06:25:08;;;;;;;19.17;7.50;;;;;;;;;;5115102;28;20532;-41
2021/05/03 06:27:34;;;;;;;21.98;7.85;;;;;;;;;;5114298;28;20179;-41
2021/05/03 06:30:01;;;;;;;14.45;7.00;;;;;;;;;;5114635;28;20177;-41
2021/05/03 06:32:28;;;;;;;16.92;7.03;;;;;;;;;;5113191;28;20211;-41
2021/05/03 06:34:54;;;;;;;17.42;7.45;;;;;;;;;;5114773;28;20180;-41
2021/05/03 06:37:20;;;;;;;17.02;7.32;;;;;;;;;;5114420;28;20259;-41
2021/05/03 06:39:46;;;;;;;18.08;6.93;;;;;;;;;;5114314;28;20428;-41
2021/05/03 06:42:12;;;;;;;19.45;7.45;;;;;;;;;;5112767;28;20189;-41
2021/05/03 06:44:38;;;;;;;18.60;6.78;;;;;;;;;;5113206;28;20181;-41
2021/05/03 06:47:04;;;;;;;16.25;6.03;;;;;;;;;;5114144;28;20183;-41
2021/05/03 06:49:30;;;;;;;19.00;6.93;;;;;;;;;;5098193;28;20181;-41
2021/05/03 06:51:56;;;;;;;12.45;6.18;;;;;;;;;;5118265;28;20568;-41
2021/05/03 06:54:22;;;;;;;13.25;5.80;;;;;;;;;;5105688;28;20188;-41
2021/05/03 06:56:48;;;;;;;18.10;7.10;;;;;;;;;;5097634;28;20173;-41
2021/05/03 06:59:14;;;;;;;10.98;5.72;;;;;;;;;;5115106;28;20184;-42
2021/05/03 07:01:40;;;;;;;13.27;6.47;;;;;;;;;;5118088;28;20169;-41
2021/05/03 07:04:07;;;;;;;11.95;5.30;;;;;;;;;;5117489;28;20223;-41
2021/05/03 07:06:33;;;;;;;10.88;5.55;;;;;;;;;;5118035;28;20234;-41
2021/05/03 07:08:59;;;;;;;11.18;5.07;;;;;;;;;;5116543;28;20196;-41
2021/05/03 07:11:28;;;;;;;11.32;5.47;;;;;;;;;;5117756;28;20568;-41
2021/05/03 07:13:54;;;;;;;13.93;6.65;;;;;;;;;;5118541;28;20161;-41
2021/05/03 07:16:20;;;;;;;12.13;5.70;;;;;;;;;;5118391;28;20172;-41
2021/05/03 07:18:46;;;;;;;10.32;5.20;;;;;;;;;;5118164;28;20447;-41
2021/05/03 07:21:12;;;;;;;11.75;5.53;;;;;;;;;;5117555;28;20307;-41
2021/05/03 07:23:39;;;;;;;10.40;4.88;;;;;;;;;;5117212;28;20176;-41
2021/05/03 07:26:07;;;;;;;12.25;5.90;;;;;;;;;;5117768;28;20215;-41
2021/05/03 07:28:33;;;;;;;8.95;4.68;;;;;;;;;;5117031;28;20177;-41
2021/05/03 07:30:59;;;;;;;10.65;5.03;;;;;;;;;;5117130;28;20216;-41
2021/05/03 07:33:26;;;;;;;9.32;4.82;;;;;;;;;;5117268;28;20177;-41
2021/05/03 07:35:52;;;;;;;14.02;5.05;;;;;;;;;;5118138;28;20561;-41
2021/05/03 07:38:18;;;;;;;8.63;4.25;;;;;;;;;;5117338;28;20475;-41
2021/05/03 07:40:44;;;;;;;8.45;4.60;;;;;;;;;;5116296;28;20185;-41
2021/05/03 07:43:10;;;;;;;8.35;4.30;;;;;;;;;;5116767;28;20195;-41
2021/05/03 07:45:36;;;;;;;8.05;4.65;;;;;;;;;;5116365;28;20194;-41
2021/05/03 07:48:02;;;;;;;9.27;4.30;;;;;;;;;;5117674;28;20193;-41
2021/05/03 07:50:29;;;;;;;7.97;3.88;;;;;;;;;;5106568;28;20595;-41
2021/05/03 07:52:57;;;;;;;8.15;4.30;;;;;;;;;;5108200;28;20587;-41
2021/05/03 07:55:23;;;;;;;7.85;4.40;;;;;;;;;;5117358;28;20161;-41
2021/05/03 07:57:49;;;;;;;7.78;4.03;;;;;;;;;;5116738;28;20552;-41
2021/05/03 08:00:15;;;;;;;10.30;4.65;;;;;;;;;;5115566;28;20200;-41
2021/05/03 08:02:41;;;;;;;7.22;3.58;;;;;;;;;;5114755;28;20165;-41
2021/05/03 08:05:07;;;;;;;8.45;4.00;;;;;;;;;;5111741;28;20177;-41
2021/05/03 08:07:33;;;;;;;6.38;3.53;;;;;;;;;;5100552;28;20184;-41
2021/05/03 08:10:00;;;;;;;7.90;4.53;;;;;;;;;;5095344;28;20162;-41
2021/05/03 08:12:27;;;;;;;9.35;3.80;;;;;;;;;;5095913;28;20541;-41
2021/05/03 08:14:53;;;;;;;5.85;3.50;;;;;;;;;;5096829;28;20452;-41
2021/05/03 08:17:20;;;;;;;7.95;3.88;;;;;;;;;;5079079;28;20192;-41
2021/05/03 08:19:46;;;;;;;7.30;3.70;;;;;;;;;;5096806;28;20166;-41
2021/05/03 08:22:13;;;;;;;7.03;3.42;;;;;;;;;;5078291;28;20193;-41
2021/05/03 08:24:39;;;;;;;4.78;2.92;;;;;;;;;;5096224;28;20556;-41
2021/05/03 08:27:06;;;;;;;6.43;3.20;;;;;;;;;;5096623;28;20201;-41
2021/05/03 08:29:33;;;;;;;6.07;3.15;;;;;;;;;;5096614;28;20170;-41
2021/05/03 08:31:59;;;;;;;5.20;2.83;;;;;;;;;;5095826;28;20323;-41
2021/05/03 08:34:26;;;;;;;6.28;3.03;;;;;;;;;;5096477;28;20166;-41
2021/05/03 08:36:56;;;;;;;5.68;3.20;;;;;;;;;;5096262;28;20189;-41
2021/05/03 08:39:22;;;;;;;5.05;2.92;;;;;;;;;;5095936;28;20355;-41
2021/05/03 08:41:48;;;;;;;5.55;2.40;;;;;;;;;;5095628;28;20174;-41
2021/05/03 08:44:15;;;;;;;6.10;3.15;;;;;;;;;;5096265;28;20181;-41
2021/05/03 08:46:44;;;;;;;6.40;2.83;;;;;;;;;;5096218;28;20604;-41
2021/05/03 08:49:31;;;;;;;4.50;2.58;;;;;;;;;;5096278;28;20246;-41
2021/05/03 08:54:35;;;;;;;5.18;2.95;;;;;;;;;;5095979;28;20452;-41
2021/05/03 08:57:03;;;;;;;4.30;2.65;;;;;;;;;;5096007;28;20248;-41
2021/05/03 08:59:29;;;;;;;4.43;2.72;;;;;;;;;;5095885;28;20158;-41
2021/05/03 09:01:55;;;;;;;4.45;2.80;;;;;;;;;;5077589;28;20459;-41
2021/05/03 09:04:21;;;;;;;6.43;2.22;;;;;;;;;;5095596;28;20170;-41
2021/05/03 09:07:01;;;;;;;4.63;2.75;;;;;;;;;;5095826;28;20359;-41
2021/05/03 09:09:37;;;;;;;4.53;2.67;;;;;;;;;;5095736;28;20177;-41
2021/05/03 09:12:11;;;;;;;5.18;2.88;;;;;;;;;;5094397;28;20258;-41
2021/05/03 09:14:59;;;;;;;5.30;2.33;;;;;;;;;;5095339;28;20239;-41
2021/05/03 09:17:25;;;;;;;5.32;2.72;;;;;;;;;;5095819;28;20180;-41
2021/05/03 09:19:52;;;;;;;3.17;2.30;;;;;;;;;;5095649;28;20158;-41
2021/05/03 09:22:28;;;;;;;4.88;2.72;;;;;;;;;;5094931;28;20174;-41
2021/05/03 09:24:56;;;;;;;4.32;2.15;;;;;;;;;;5095304;28;20184;-41
2021/05/03 09:27:22;;;;;;;4.57;2.42;;;;;;;;;;5095347;28;20510;-41
2021/05/03 09:29:49;;;;;;;3.13;1.73;;;;;;;;;;5095471;28;20464;-41
2021/05/03 09:32:21;;;;;;;5.00;2.42;;;;;;;;;;5094687;28;20229;-41
2021/05/03 09:34:48;;;;;;;4.47;2.45;;;;;;;;;;5095221;28;20166;-41
2021/05/03 09:37:16;;;;;;;4.25;2.20;;;;;;;;;;5095141;28;20215;-41
2021/05/03 09:39:42;;;;;;;2.92;2.10;;;;;;;;;;5094908;28;20174;-41
2021/05/03 09:42:08;;;;;;;3.72;2.20;;;;;;;;;;5094448;28;20231;-41
2021/05/03 09:44:34;;;;;;;4.47;2.20;;;;;;;;;;5095056;28;20177;-41
2021/05/03 09:47:00;;;;;;;4.45;2.28;;;;;;;;;;5095122;28;20174;-41
2021/05/03 09:49:29;;;;;;;2.85;1.75;;;;;;;;;;5096904;28;20208;-41
2021/05/03 09:51:57;;;;;;;3.70;1.90;;;;;;;;;;5114839;28;20203;-41
2021/05/03 09:54:25;;;;;;;4.18;2.22;;;;;;;;;;5115287;28;20218;-41
2021/05/03 09:57:00;;;;;;;2.95;1.73;;;;;;;;;;5115576;28;20415;-41
2021/05/03 09:59:29;;;;;;;3.10;2.10;;;;;;;;;;5115956;28;20461;-41
2021/05/03 10:02:03;;;;;;;3.15;1.90;;;;;;;;;;5115112;28;20169;-41
2021/05/03 10:04:29;;;;;;;2.90;1.90;;;;;;;;;;5115047;28;20578;-41
2021/05/03 10:06:55;;;;;;;3.33;1.63;;;;;;;;;;5115607;28;20165;-41
2021/05/03 10:09:22;;;;;;;3.45;2.00;;;;;;;;;;5115118;28;20592;-41
2021/05/03 10:11:48;;;;;;;2.50;1.60;;;;;;;;;;5114449;28;20681;-41
2021/05/03 10:14:15;;;;;;;2.60;1.63;;;;;;;;;;5115086;28;20208;-41
2021/05/03 10:16:41;;;;;;;2.25;1.55;;;;;;;;;;5115046;28;20615;-41
2021/05/03 10:19:08;;;;;;;2.92;1.70;;;;;;;;;;5114873;28;20165;-41
2021/05/03 10:21:34;;;;;;;2.60;1.58;;;;;;;;;;5114373;28;20192;-41
2021/05/03 10:24:00;;;;;;;2.75;1.70;;;;;;;;;;5117492;28;20165;-41
2021/05/03 10:26:27;;;;;;;2.97;1.58;;;;;;;;;;5119241;28;20173;-41
2021/05/03 10:28:54;;;;;;;2.45;1.70;;;;;;;;;;5119549;28;20651;-41
2021/05/03 10:31:20;;;;;;;2.28;1.70;;;;;;;;;;5118605;28;20208;-41
2021/05/03 10:33:46;;;;;;;2.45;1.65;;;;;;;;;;5118891;28;20165;-41
2021/05/03 10:36:30;;;;;;;2.42;1.58;;;;;;;;;;5119154;28;20172;-41
2021/05/03 10:38:56;;;;;;;1.77;1.50;;;;;;;;;;5116909;28;20185;-41
2021/05/03 10:41:24;;;;;;;2.50;1.70;;;;;;;;;;5116750;28;20512;-41
2021/05/03 10:43:50;;;;;;;2.28;1.60;;;;;;;;;;5118584;28;20191;-41
2021/05/03 10:51:29;;;;;;;2.17;1.42;;;;;;;;;;5118233;28;20606;-41
2021/05/03 10:53:55;;;;;;;1.75;1.45;;;;;;;;;;5113283;28;20172;-41
2021/05/03 10:56:37;;;;;;;2.22;1.27;;;;;;;;;;5118158;28;20188;-41
2021/05/03 10:59:03;;;;;;;2.17;1.33;;;;;;;;;;5118606;28;20165;-41
2021/05/03 11:01:29;;;;;;;2.67;1.50;;;;;;;;;;5117073;28;20544;-41
2021/05/03 11:03:55;;;;;;;1.80;1.30;;;;;;;;;;5118445;28;20264;-41
2021/05/03 11:06:37;;;;;;;3.63;1.80;;;;;;;;;;5118519;28;20169;-41
2021/05/03 11:09:22;;;;;;;1.83;1.27;;;;;;;;;;5118079;28;20185;-41
2021/05/03 11:11:48;;;;;;;2.08;1.20;;;;;;;;;;5117490;28;20551;-41
2021/05/03 11:14:16;;;;;;;3.45;1.30;;;;;;;;;;5100648;28;20165;-41
2021/05/03 11:16:49;;;;;;;1.63;1.30;;;;;;;;;;5107065;28;20197;-41
2021/05/03 11:20:19;;;;;;;1.88;1.40;;;;;;;;;;5098205;28;20170;-41
2021/05/03 11:22:22;;;;;;;1.30;1.20;;;;;;;;;;5103722;28;20213;-41
2021/05/03 11:24:52;;;;;;;1.42;1.17;;;;;;;;;;5118034;28;20289;-41
2021/05/03 11:27:28;;;;;;;1.73;1.42;;;;;;;;;;5117992;28;20177;-41
2021/05/03 11:30:01;;;;;;;1.70;1.30;;;;;;;;;;5117757;28;20272;-41
2021/05/03 11:32:30;;;;;;;2.22;1.40;;;;;;;;;;5116281;28;20576;-41
2021/05/03 11:37:41;;;;;;;1.27;1.13;;;;;;;;;;5108579;27;20200;-41
2021/05/03 11:40:19;;;;;;;1.77;1.20;;;;;;;;;;5122340;27;20192;-41
2021/05/03 11:43:23;;;;;;;1.50;1.30;;;;;;;;;;5136270;27;20481;-41
2021/05/03 11:45:49;;;;;;;1.50;1.10;;;;;;;;;;5124379;27;20477;-41
2021/05/03 11:48:15;;;;;;;1.33;1.23;;;;;;;;;;5117807;28;20173;-41
2021/05/03 11:50:41;;;;;;;1.23;1.02;;;;;;;;;;5116550;28;20254;-41
2021/05/03 11:53:07;;;;;;;1.65;1.20;;;;;;;;;;5116774;28;20659;-41
2021/05/03 11:55:33;;;;;;;1.23;1.13;;;;;;;;;;5106997;28;20179;-41
2021/05/03 11:57:59;;;;;;;1.52;1.10;;;;;;;;;;5117603;28;20316;-41
2021/05/03 12:00:27;;;;;;;1.27;1.17;;;;;;;;;;5117285;28;20165;-41
2021/05/03 12:03:00;;;;;;;1.40;1.13;;;;;;;;;;5096674;28;20596;-41
2021/05/03 12:05:26;;;;;;;1.27;1.17;;;;;;;;;;5097171;28;20173;-41
2021/05/03 12:07:52;;;;;;;1.05;0.98;;;;;;;;;;5117376;28;20482;-41
2021/05/03 12:10:21;;;;;;;1.20;1.08;;;;;;;;;;5116876;28;20173;-41
2021/05/03 12:12:56;;;;;;;1.85;1.13;;;;;;;;;;5117016;28;20170;-41
2021/05/03 12:15:25;;;;;;;1.00;0.90;;;;;;;;;;5115850;28;20187;-41
2021/05/03 12:17:51;;;;;;;1.40;1.20;;;;;;;;;;5105296;28;20177;-41
2021/05/03 12:20:19;;;;;;;1.65;1.10;;;;;;;;;;5116515;28;20534;-41
2021/05/03 12:22:52;;;;;;;1.20;1.00;;;;;;;;;;5115453;28;20169;-41
2021/05/03 12:25:19;;;;;;;2.08;1.00;;;;;;;;;;5113655;28;20169;-41
2021/05/03 12:27:45;;;;;;;1.85;1.20;;;;;;;;;;5116670;28;20556;-41
2021/05/03 12:30:11;;;;;;;1.88;1.30;;;;;;;;;;5116757;28;20219;-41
2021/05/03 12:32:38;;;;;;;2.20;1.02;;;;;;;;;;5115548;28;20251;-41
2021/05/03 12:35:05;;;;;;;1.00;0.85;;;;;;;;;;5116861;28;20181;-41
2021/05/03 12:37:31;;;;;;;1.60;1.20;;;;;;;;;;5115708;28;20520;-41
2021/05/03 12:39:59;;;;;;;1.23;0.93;;;;;;;;;;5116682;28;20552;-41
2021/05/03 12:42:30;;;;;;;2.90;1.17;;;;;;;;;;5116148;28;20184;-41
2021/05/03 12:44:58;;;;;;;1.20;1.10;;;;;;;;;;5116538;28;20169;-41
2021/05/03 12:47:46;;;;;;;3.85;1.13;;;;;;;;;;5115228;28;20176;-41
2021/05/03 12:50:50;;;;;;;1.98;1.05;;;;;;;;;;5116367;28;20180;-41
2021/05/03 12:58:19;;;;;;;2.35;1.10;;;;;;;;;;5116488;28;20221;-41
2021/05/03 13:01:01;;;;;;;2.42;1.35;;;;;;;;;;5113216;28;20188;-41
2021/05/03 13:11:54;;;;;;;4.30;1.08;;;;;;;;;;5114606;28;20200;-42
2021/05/03 13:29:03;;;;;;;3.85;1.60;;;;;;;;;;5095192;28;20276;-42
2021/05/03 13:31:30;;;;;;;4.68;1.33;;;;;;;;;;5103328;28;20262;-42
2021/05/03 13:33:57;;;;;;;4.22;1.10;;;;;;;;;;5115795;28;20153;-41
2021/05/03 13:36:24;;;;;;;2.30;1.17;;;;;;;;;;5115713;28;20166;-41
2021/05/03 13:38:50;;;;;;;3.38;1.13;;;;;;;;;;5097488;28;20186;-41
2021/05/03 13:41:16;;;;;;;1.58;1.25;;;;;;;;;;5114504;28;20196;-41
2021/05/03 13:43:42;;;;;;;4.75;1.00;;;;;;;;;;5115370;28;20181;-41
2021/05/03 13:46:08;;;;;;;2.25;0.98;;;;;;;;;;5115738;28;20256;-41
2021/05/03 13:48:35;;;;;;;4.10;1.20;;;;;;;;;;5115349;28;20467;-42
2021/05/03 13:51:01;;;;;;;5.57;1.42;;;;;;;;;;5114712;28;20203;-42
2021/05/03 13:53:27;;;;;;;2.15;0.90;;;;;;;;;;5115148;28;20329;-41
2021/05/03 13:55:54;;;;;;;2.80;0.88;;;;;;;;;;5114884;28;20272;-41
2021/05/03 13:58:21;;;;;;;3.63;0.90;;;;;;;;;;5114951;28;20177;-42
2021/05/03 14:00:47;;;;;;;3.33;1.52;;;;;;;;;;5114960;28;20472;-41
2021/05/03 14:03:13;;;;;;;3.45;1.20;;;;;;;;;;5105078;28;20196;-42
2021/05/03 14:05:40;;;;;;;1.00;0.80;;;;;;;;;;5103154;28;20173;-41
2021/05/03 14:08:06;;;;;;;1.55;1.00;;;;;;;;;;5114546;28;20661;-42
2021/05/03 14:10:32;;;;;;;3.88;0.70;;;;;;;;;;5113784;28;20181;-42
2021/05/03 14:12:59;;;;;;;2.47;1.40;;;;;;;;;;5115177;28;20504;-41
2021/05/03 14:15:26;;;;;;;2.80;0.95;;;;;;;;;;5115315;28;20191;-41
2021/05/03 14:17:52;;;;;;;2.30;1.00;;;;;;;;;;5115298;28;20582;-41
2021/05/03 14:20:18;;;;;;;0.98;0.90;;;;;;;;;;5115082;28;20276;-41
2021/05/03 14:22:44;;;;;;;1.10;0.93;;;;;;;;;;5114783;28;20179;-41
2021/05/03 14:25:13;;;;;;;1.67;0.80;;;;;;;;;;5114590;28;20180;-41
2021/05/03 14:27:42;;;;;;;1.85;0.95;;;;;;;;;;5115129;28;20604;-41
2021/05/03 14:30:13;;;;;;;2.40;1.00;;;;;;;;;;5115091;28;20738;-41
2021/05/03 14:32:58;;;;;;;1.30;0.90;;;;;;;;;;5095614;28;20205;-41
2021/05/03 14:35:26;;;;;;;2.35;0.90;;;;;;;;;;5111656;28;20173;-41
2021/05/03 14:37:52;;;;;;;1.42;0.98;;;;;;;;;;5114642;28;20197;-41
2021/05/03 14:40:19;;;;;;;1.13;0.80;;;;;;;;;;5113775;28;20177;-41
2021/05/03 14:42:48;;;;;;;1.85;0.88;;;;;;;;;;5114044;28;20174;-41
2021/05/03 14:45:16;;;;;;;2.92;0.93;;;;;;;;;;5114730;28;20177;-41
2021/05/03 14:47:52;;;;;;;1.92;0.90;;;;;;;;;;5114509;28;20176;-42
2021/05/03 14:53:23;;;;;;;4.28;1.02;;;;;;;;;;5114755;28;20181;-41
2021/05/03 14:55:49;;;;;;;2.55;1.15;;;;;;;;;;5096890;28;20174;-41
2021/05/03 14:58:15;;;;;;;2.38;0.85;;;;;;;;;;5114304;28;20295;-41
2021/05/03 15:00:41;;;;;;;1.98;1.10;;;;;;;;;;5114406;28;20173;-41
2021/05/03 15:03:08;;;;;;;2.15;1.10;;;;;;;;;;5114501;28;20165;-41
2021/05/03 15:05:37;;;;;;;2.83;1.73;;;;;;;;;;5114348;28;21346;-41
2021/05/03 15:08:03;;;;;;;3.35;0.93;;;;;;;;;;5114299;28;20180;-41
2021/05/03 15:10:29;;;;;;;2.20;1.10;;;;;;;;;;5115150;28;20230;-41
2021/05/03 15:13:08;;;;;;;3.78;0.98;;;;;;;;;;5118111;28;20173;-41
2021/05/03 15:15:39;;;;;;;4.30;1.17;;;;;;;;;;5118398;28;20413;-41
2021/05/03 15:23:28;;;;;;;3.05;1.20;;;;;;;;;;5117863;28;20578;-41
2021/05/03 15:25:57;;;;;;;1.75;1.00;;;;;;;;;;5117955;28;20173;-41
2021/05/03 15:28:37;;;;;;;1.85;1.00;;;;;;;;;;5118109;28;20165;-42
2021/05/03 15:33:35;;;;;;;2.90;1.13;;;;;;;;;;5100371;28;20265;-41
2021/05/03 15:36:06;;;;;;;3.97;1.13;;;;;;;;;;5104522;28;20574;-41
2021/05/03 15:38:33;;;;;;;2.65;0.88;;;;;;;;;;5116647;28;20177;-41
2021/05/03 15:40:59;;;;;;;1.20;0.80;;;;;;;;;;5116136;28;20267;-41